createdAt,value
2022-12-17T00:00:28.405Z,37.90
2022-12-17T00:03:16.716Z,36.93
2022-12-17T00:06:01.959Z,36.50
2022-12-17T00:08:47.077Z,47.17
2022-12-17T00:11:32.270Z,38.37
2022-12-17T00:14:17.403Z,32.60
2022-12-17T00:17:02.658Z,33.40
2022-12-17T00:19:47.791Z,34.70
2022-12-17T00:22:33.108Z,33.97
2022-12-17T00:25:18.350Z,33.20
2022-12-17T00:28:03.530Z,33.83
2022-12-17T00:30:59.412Z,36.30
2022-12-17T00:33:44.350Z,37.33
2022-12-17T00:36:29.357Z,35.10
2022-12-17T00:39:14.674Z,34.07
2022-12-17T00:42:13.599Z,33.23
2022-12-17T00:44:58.751Z,33.00
2022-12-17T00:47:44.004Z,33.67
2022-12-17T00:50:29.122Z,32.07
2022-12-17T00:53:14.311Z,34.70
2022-12-17T00:55:59.554Z,34.53
2022-12-17T00:58:44.622Z,30.03
2022-12-17T01:01:30.071Z,30.67
2022-12-17T01:04:15.422Z,32.20
2022-12-17T01:07:00.770Z,31.73
2022-12-17T01:09:45.946Z,32.47
2022-12-17T01:12:31.120Z,32.00
2022-12-17T01:15:16.375Z,32.47
2022-12-17T01:18:01.426Z,33.17
2022-12-17T01:20:46.853Z,32.13
2022-12-17T01:23:32.210Z,32.67
2022-12-17T01:26:17.442Z,33.00
2022-12-17T01:29:02.566Z,31.20
2022-12-17T01:31:47.765Z,31.50
2022-12-17T01:34:33.013Z,32.77
2022-12-17T01:37:18.033Z,31.73
2022-12-17T01:40:03.266Z,31.93
2022-12-17T01:42:55.906Z,32.53
2022-12-17T01:45:41.237Z,31.43
2022-12-17T01:48:29.225Z,31.47
2022-12-17T01:51:25.061Z,32.63
2022-12-17T01:54:10.614Z,30.33
2022-12-17T01:56:55.804Z,32.23
2022-12-17T01:59:43.456Z,31.83
2022-12-17T02:02:28.705Z,30.23
2022-12-17T02:05:13.747Z,31.30
2022-12-17T02:08:08.017Z,32.10
2022-12-17T02:10:56.587Z,31.80
2022-12-17T02:13:42.466Z,30.83
2022-12-17T02:16:33.226Z,31.17
2022-12-17T02:19:36.921Z,32.13
2022-12-17T02:22:40.382Z,32.87
2022-12-17T02:25:28.343Z,31.60
2022-12-17T02:28:13.777Z,31.70
2022-12-17T02:30:58.850Z,32.13
2022-12-17T02:33:44.287Z,30.50
2022-12-17T02:36:29.437Z,30.83
2022-12-17T02:39:14.588Z,30.87
2022-12-17T02:42:09.640Z,30.80
2022-12-17T02:44:54.803Z,31.97
2022-12-17T02:47:39.954Z,30.83
2022-12-17T02:50:25.736Z,29.57
2022-12-17T02:53:10.877Z,31.57
2022-12-17T02:55:56.034Z,31.13
2022-12-17T02:58:41.249Z,30.80
2022-12-17T03:01:26.491Z,28.70
2022-12-17T03:04:11.843Z,29.47
2022-12-17T03:06:56.922Z,30.93
2022-12-17T03:09:42.052Z,31.00
2022-12-17T03:12:27.237Z,31.47
2022-12-17T03:15:12.335Z,32.27
2022-12-17T03:17:57.556Z,29.47
2022-12-17T03:20:42.719Z,31.67
2022-12-17T03:23:28.434Z,31.07
2022-12-17T03:26:16.219Z,30.97
2022-12-17T03:29:01.320Z,30.47
2022-12-17T03:31:46.452Z,31.97
2022-12-17T03:34:31.619Z,32.40
2022-12-17T03:37:16.950Z,31.00
2022-12-17T03:40:02.196Z,29.97
2022-12-17T03:42:47.202Z,32.10
2022-12-17T03:45:32.403Z,31.63
2022-12-17T03:48:24.680Z,33.83
2022-12-17T03:51:10.450Z,31.97
2022-12-17T03:53:55.625Z,31.07
2022-12-17T03:56:40.782Z,29.73
2022-12-17T03:59:25.950Z,30.47
2022-12-17T04:02:11.334Z,29.27
2022-12-17T04:04:56.618Z,31.43
2022-12-17T04:07:41.772Z,29.27
2022-12-17T04:10:26.953Z,32.27
2022-12-17T04:13:12.131Z,33.23
2022-12-17T04:15:57.259Z,33.80
2022-12-17T04:18:42.470Z,32.27
2022-12-17T04:21:27.714Z,30.17
2022-12-17T04:24:12.898Z,30.83
2022-12-17T04:26:58.091Z,32.57
2022-12-17T04:29:43.219Z,33.27
2022-12-17T04:32:33.659Z,34.00
2022-12-17T04:35:20.359Z,33.60
2022-12-17T04:38:05.469Z,33.47
2022-12-17T04:40:50.622Z,32.70
2022-12-17T04:43:36.319Z,34.43
2022-12-17T04:46:21.740Z,34.00
2022-12-17T04:49:06.929Z,34.90
2022-12-17T04:51:52.088Z,33.33
2022-12-17T04:54:37.382Z,32.13
2022-12-17T04:57:22.453Z,32.70
2022-12-17T05:00:07.771Z,31.97
2022-12-17T05:02:52.919Z,31.00
2022-12-17T05:05:38.158Z,30.67
2022-12-17T05:08:23.436Z,32.27
2022-12-17T05:11:08.483Z,29.80
2022-12-17T05:13:53.737Z,31.23
2022-12-17T05:16:38.909Z,30.00
2022-12-17T05:19:24.167Z,31.37
2022-12-17T05:22:09.453Z,30.53
2022-12-17T05:24:55.322Z,31.73
2022-12-17T05:27:40.804Z,32.03
2022-12-17T05:30:26.016Z,32.17
2022-12-17T05:33:17.871Z,30.23
2022-12-17T05:36:03.043Z,32.13
2022-12-17T05:38:48.478Z,33.27
2022-12-17T05:41:33.595Z,30.80
2022-12-17T05:44:18.873Z,34.50
2022-12-17T05:47:03.923Z,34.73
2022-12-17T05:49:49.330Z,36.90
2022-12-17T05:52:34.446Z,37.40
2022-12-17T05:55:19.664Z,37.77
2022-12-17T05:58:04.949Z,38.37
2022-12-17T06:00:50.068Z,38.40
2022-12-17T06:03:35.872Z,39.53
2022-12-17T06:06:21.302Z,39.37
2022-12-17T06:09:06.499Z,40.20
2022-12-17T06:11:51.739Z,40.57
2022-12-17T06:14:36.921Z,41.90
2022-12-17T06:17:21.991Z,40.20
2022-12-17T06:20:07.170Z,41.23
2022-12-17T06:22:56.876Z,42.87
2022-12-17T06:25:42.158Z,41.57
2022-12-17T06:28:27.397Z,41.50
2022-12-17T06:31:12.791Z,42.00
2022-12-17T06:33:58.126Z,43.30
2022-12-17T06:36:43.451Z,44.60
2022-12-17T06:39:28.655Z,42.60
2022-12-17T06:42:13.790Z,44.30
2022-12-17T06:45:00.774Z,43.93
2022-12-17T06:47:45.908Z,44.10
2022-12-17T06:50:31.285Z,47.07
2022-12-17T06:53:28.177Z,43.13
2022-12-17T06:56:15.522Z,41.30
2022-12-17T06:59:00.641Z,40.30
2022-12-17T07:01:46.622Z,43.50
2022-12-17T07:04:31.972Z,41.67
2022-12-17T07:07:17.062Z,42.63
2022-12-17T07:10:02.337Z,43.33
2022-12-17T07:12:47.680Z,42.93
2022-12-17T07:15:35.375Z,45.03
2022-12-17T07:18:21.136Z,50.43
2022-12-17T07:21:06.170Z,52.83
2022-12-17T07:23:51.458Z,54.10
2022-12-17T07:26:36.810Z,51.80
2022-12-17T07:29:21.927Z,44.20
2022-12-17T07:32:07.200Z,44.57
2022-12-17T07:34:52.034Z,46.13
2022-12-17T07:37:37.151Z,54.83
2022-12-17T07:40:22.351Z,51.93
2022-12-17T07:43:07.547Z,46.53
2022-12-17T07:45:52.696Z,44.37
2022-12-17T07:48:37.791Z,44.97
2022-12-17T07:51:23.034Z,44.37
2022-12-17T07:54:08.253Z,47.10
2022-12-17T07:56:53.604Z,46.63
2022-12-17T07:59:38.707Z,46.70
2022-12-17T08:02:24.333Z,46.33
2022-12-17T08:05:09.942Z,47.53
2022-12-17T08:07:55.136Z,46.50
2022-12-17T08:10:40.436Z,45.93
2022-12-17T08:13:25.626Z,44.47
2022-12-17T08:16:11.527Z,45.17
2022-12-17T08:18:56.834Z,47.20
2022-12-17T08:21:41.899Z,45.37
2022-12-17T08:24:27.043Z,45.43
2022-12-17T08:27:12.108Z,43.30
2022-12-17T08:29:57.241Z,43.00
2022-12-17T08:32:42.463Z,48.23
2022-12-17T08:35:27.610Z,47.97
2022-12-17T08:38:12.992Z,46.30
2022-12-17T08:40:58.359Z,48.03
2022-12-17T08:43:43.814Z,47.43
2022-12-17T08:46:29.089Z,47.10
2022-12-17T08:49:14.371Z,48.00
2022-12-17T08:51:59.632Z,48.87
2022-12-17T08:54:44.947Z,50.27
2022-12-17T08:57:32.339Z,48.67
2022-12-17T09:00:17.756Z,46.47
2022-12-17T09:03:03.232Z,46.07
2022-12-17T09:05:48.654Z,49.90
2022-12-17T09:08:33.965Z,45.70
2022-12-17T09:11:19.265Z,45.40
2022-12-17T09:14:04.378Z,47.97
2022-12-17T09:16:49.650Z,45.80
2022-12-17T09:19:34.833Z,50.63
2022-12-17T09:22:20.011Z,47.80
2022-12-17T09:25:05.224Z,47.23
2022-12-17T09:27:51.448Z,45.20
2022-12-17T09:30:36.749Z,47.33
2022-12-17T09:33:38.619Z,45.57
2022-12-17T09:36:24.422Z,47.20
2022-12-17T09:39:09.397Z,44.67
2022-12-17T09:42:03.749Z,44.97
2022-12-17T09:45:00.570Z,45.33
2022-12-17T09:47:52.057Z,43.57
2022-12-17T09:50:37.202Z,44.77
2022-12-17T09:53:36.193Z,45.37
2022-12-17T09:56:21.731Z,44.27
2022-12-17T09:59:06.897Z,45.03
2022-12-17T10:01:52.681Z,45.70
2022-12-17T10:04:44.537Z,46.07
2022-12-17T10:07:33.389Z,45.67
2022-12-17T10:10:18.980Z,47.40
2022-12-17T10:13:04.390Z,48.37
2022-12-17T10:15:49.623Z,47.20
2022-12-17T10:18:35.034Z,50.07
2022-12-17T10:21:20.732Z,48.67
2022-12-17T10:24:05.870Z,47.97
2022-12-17T10:26:51.593Z,50.80
2022-12-17T10:29:40.186Z,52.73
2022-12-17T10:32:35.296Z,53.57
2022-12-17T10:35:35.699Z,54.73
2022-12-17T10:38:20.912Z,54.23
2022-12-17T10:41:05.981Z,52.63
2022-12-17T10:43:52.056Z,53.80
2022-12-17T10:46:43.548Z,51.90
2022-12-17T10:49:29.392Z,49.73
2022-12-17T10:52:17.866Z,52.00
2022-12-17T10:55:03.038Z,49.90
2022-12-17T10:57:51.776Z,49.77
2022-12-17T11:00:36.956Z,51.23
2022-12-17T11:03:22.281Z,50.27
2022-12-17T11:06:08.000Z,56.23
2022-12-17T11:08:53.186Z,53.13
2022-12-17T11:11:38.567Z,50.37
2022-12-17T11:14:23.752Z,51.37
2022-12-17T11:17:29.075Z,48.97
2022-12-17T11:20:15.793Z,49.50
2022-12-17T11:23:05.213Z,48.70
2022-12-17T11:25:59.631Z,49.37
2022-12-17T11:28:47.793Z,47.03
2022-12-17T11:31:36.011Z,47.03
2022-12-17T11:34:21.089Z,46.23
2022-12-17T11:37:16.008Z,48.50
2022-12-17T11:40:13.734Z,44.67
2022-12-17T11:42:58.843Z,44.80
2022-12-17T11:45:46.688Z,45.57
2022-12-17T11:48:53.913Z,46.73
2022-12-17T11:51:42.265Z,51.13
2022-12-17T11:54:59.475Z,50.00
2022-12-17T11:57:50.611Z,49.00
2022-12-17T12:00:36.856Z,48.50
2022-12-17T12:03:22.194Z,47.23
2022-12-17T12:06:17.135Z,49.97
2022-12-17T12:09:28.303Z,48.90
2022-12-17T12:12:22.730Z,46.87
2022-12-17T12:15:23.761Z,48.23
2022-12-17T12:18:15.090Z,47.00
2022-12-17T12:21:03.232Z,47.83
2022-12-17T12:24:07.135Z,49.40
2022-12-17T12:26:59.558Z,45.90
2022-12-17T12:29:59.469Z,46.17
2022-12-17T12:32:47.147Z,47.73
2022-12-17T12:35:37.669Z,48.30
2022-12-17T12:38:23.230Z,47.73
2022-12-17T12:41:13.030Z,47.10
2022-12-17T12:43:59.065Z,49.50
2022-12-17T12:46:56.003Z,48.87
2022-12-17T12:49:44.606Z,49.60
2022-12-17T12:52:29.771Z,48.10
2022-12-17T12:55:15.356Z,48.63
2022-12-17T12:58:00.458Z,50.13
2022-12-17T13:01:12.845Z,48.77
2022-12-17T13:04:04.161Z,45.33
2022-12-17T13:06:49.714Z,49.27
2022-12-17T13:09:16.243Z,46.77
2022-12-17T13:11:43.420Z,45.67
2022-12-17T13:14:20.637Z,49.47
2022-12-17T13:16:47.221Z,49.40
2022-12-17T13:19:18.639Z,46.77
2022-12-17T13:21:45.186Z,47.97
2022-12-17T13:24:13.238Z,49.93
2022-12-17T13:26:39.689Z,45.73
2022-12-17T13:29:41.857Z,48.27
2022-12-17T13:32:27.931Z,43.60
2022-12-17T13:35:02.398Z,47.07
2022-12-17T13:37:43.961Z,46.07
2022-12-17T13:40:10.417Z,44.67
2022-12-17T13:42:37.024Z,44.33
2022-12-17T13:45:03.732Z,45.40
2022-12-17T13:47:30.992Z,43.30
2022-12-17T13:50:32.285Z,45.50
2022-12-17T13:52:44.576Z,44.17
2022-12-17T13:55:17.383Z,46.93
2022-12-17T13:57:47.214Z,44.73
2022-12-17T14:00:20.927Z,45.47
2022-12-17T14:02:47.514Z,44.37
2022-12-17T14:05:23.874Z,44.73
2022-12-17T14:07:50.547Z,45.03
2022-12-17T14:10:17.453Z,47.13
2022-12-17T14:12:44.023Z,47.33
2022-12-17T14:15:26.391Z,44.30
2022-12-17T14:17:53.000Z,43.13
2022-12-17T14:20:21.252Z,42.57
2022-12-17T14:22:51.689Z,45.53
2022-12-17T14:25:26.153Z,42.37
2022-12-17T14:27:53.975Z,41.60
2022-12-17T14:31:17.135Z,42.33
2022-12-17T14:33:37.676Z,37.83
2022-12-17T14:36:05.800Z,40.13
2022-12-17T14:38:38.292Z,39.33
2022-12-17T14:41:30.069Z,36.13
2022-12-17T14:43:57.756Z,39.30
2022-12-17T14:46:25.507Z,39.07
2022-12-17T14:49:01.640Z,38.30
2022-12-17T14:51:48.420Z,36.43
2022-12-17T14:54:14.965Z,35.83
2022-12-17T14:56:41.587Z,37.50
2022-12-17T14:59:31.460Z,38.77
2022-12-17T15:01:58.588Z,39.70
2022-12-17T15:04:25.131Z,38.60
2022-12-17T15:06:53.074Z,35.70
2022-12-17T15:09:19.530Z,35.10
2022-12-17T15:11:45.993Z,34.87
2022-12-17T15:14:12.519Z,37.27
2022-12-17T15:16:39.050Z,34.67
2022-12-17T15:19:05.577Z,38.23
2022-12-17T15:21:32.045Z,37.47
2022-12-17T15:23:58.531Z,39.43
2022-12-17T15:26:25.057Z,39.70
2022-12-17T15:28:51.557Z,46.03
2022-12-17T15:31:23.161Z,45.20
2022-12-17T15:33:51.423Z,42.60
2022-12-17T15:36:17.871Z,41.40
2022-12-17T15:38:44.511Z,41.20
2022-12-17T15:41:29.880Z,39.67
2022-12-17T15:43:56.335Z,41.57
2022-12-17T15:46:22.918Z,39.97
2022-12-17T15:48:50.622Z,43.07
2022-12-17T15:51:19.838Z,44.60
2022-12-17T15:53:47.830Z,43.50
2022-12-17T15:56:24.377Z,42.20
2022-12-17T15:58:50.932Z,42.47
2022-12-17T16:01:17.757Z,42.27
2022-12-17T16:03:44.510Z,40.17
2022-12-17T16:06:11.116Z,40.90
2022-12-17T16:08:39.178Z,42.37
2022-12-17T16:11:06.781Z,43.50
2022-12-17T16:13:33.248Z,41.67
2022-12-17T16:16:03.799Z,41.80
2022-12-17T16:18:30.968Z,43.33
2022-12-17T16:21:04.456Z,47.00
2022-12-17T16:23:30.899Z,44.47
2022-12-17T16:25:58.119Z,41.93
2022-12-17T16:28:24.678Z,38.93
2022-12-17T16:30:58.645Z,41.07
2022-12-17T16:33:25.122Z,41.80
2022-12-17T16:35:54.720Z,39.50
2022-12-17T16:38:22.255Z,37.87
2022-12-17T16:40:48.970Z,36.80
2022-12-17T16:43:15.701Z,34.10
2022-12-17T16:45:51.450Z,35.03
2022-12-17T16:48:19.971Z,37.33
2022-12-17T16:50:46.647Z,36.47
2022-12-17T16:53:13.150Z,35.70
2022-12-17T16:55:40.331Z,35.07
2022-12-17T16:58:07.077Z,37.00
2022-12-17T17:00:33.988Z,39.37
2022-12-17T17:03:00.620Z,37.30
2022-12-17T17:05:27.272Z,39.00
2022-12-17T17:08:05.082Z,39.40
2022-12-17T17:10:31.678Z,38.50
2022-12-17T17:12:59.943Z,37.73
2022-12-17T17:15:26.482Z,39.33
2022-12-17T17:17:55.142Z,40.20
2022-12-17T17:20:22.927Z,41.00
2022-12-17T17:22:49.395Z,40.07
2022-12-17T17:25:15.865Z,42.47
2022-12-17T17:27:42.408Z,42.37
2022-12-17T17:30:09.163Z,40.03
2022-12-17T17:32:35.641Z,40.63
2022-12-17T17:35:02.146Z,42.33
2022-12-17T17:37:28.590Z,41.17
2022-12-17T17:39:55.048Z,43.30
2022-12-17T17:42:21.501Z,43.17
2022-12-17T17:44:48.871Z,40.90
2022-12-17T17:47:15.369Z,41.77
2022-12-17T17:49:41.904Z,42.73
2022-12-17T17:52:09.849Z,44.90
2022-12-17T17:54:36.692Z,41.00
2022-12-17T17:57:03.173Z,39.40
2022-12-17T17:59:33.768Z,39.20
2022-12-17T18:02:03.970Z,36.93
2022-12-17T18:04:30.589Z,36.50
2022-12-17T18:09:43.716Z,35.07
2022-12-17T18:12:28.953Z,40.73
2022-12-17T18:15:13.861Z,41.33
2022-12-17T18:17:41.646Z,39.17
2022-12-17T18:20:09.773Z,41.60
2022-12-17T18:22:36.364Z,37.47
2022-12-17T18:25:03.187Z,34.60
2022-12-17T18:27:29.639Z,32.10
2022-12-17T18:29:56.099Z,32.03
2022-12-17T18:32:22.678Z,34.77
2022-12-17T18:34:49.219Z,35.27
2022-12-17T18:37:15.755Z,36.33
2022-12-17T18:39:42.338Z,36.73
2022-12-17T18:42:27.514Z,34.57
2022-12-17T18:44:54.790Z,37.93
2022-12-17T18:47:21.488Z,34.77
2022-12-17T18:49:48.273Z,39.20
2022-12-17T18:52:17.054Z,38.00
2022-12-17T18:54:44.287Z,49.47
2022-12-17T18:57:10.789Z,42.43
2022-12-17T18:59:37.560Z,35.73
2022-12-17T19:02:04.308Z,29.87
2022-12-17T19:04:33.256Z,30.00
2022-12-17T19:06:59.806Z,29.83
2022-12-17T19:09:34.261Z,30.40
2022-12-17T19:12:01.196Z,29.40
2022-12-17T19:14:27.670Z,31.07
2022-12-17T19:16:54.868Z,31.53
2022-12-17T19:19:21.697Z,31.83
2022-12-17T19:21:48.820Z,32.93
2022-12-17T19:24:16.308Z,30.83
2022-12-17T19:26:42.987Z,32.57
2022-12-17T19:29:10.696Z,32.23
2022-12-17T19:31:37.250Z,32.23
2022-12-17T19:34:05.153Z,32.60
2022-12-17T19:36:32.104Z,26.80
2022-12-17T19:38:59.247Z,27.50
2022-12-17T19:41:25.932Z,27.73
2022-12-17T19:43:56.256Z,26.90
2022-12-17T19:46:23.302Z,27.97
2022-12-17T19:48:50.478Z,28.97
2022-12-17T19:51:17.647Z,28.57
2022-12-17T19:53:44.206Z,27.57
2022-12-17T19:56:10.744Z,28.00
2022-12-17T19:58:37.500Z,30.13
2022-12-17T20:01:07.968Z,27.27
2022-12-17T20:03:35.027Z,29.77
2022-12-17T20:06:01.657Z,29.73
2022-12-17T20:08:28.201Z,31.80
2022-12-17T20:10:54.670Z,29.03
2022-12-17T20:13:22.134Z,31.30
2022-12-17T20:15:48.651Z,29.03
2022-12-17T20:18:15.260Z,29.30
2022-12-17T20:20:42.014Z,30.23
2022-12-17T20:23:08.639Z,31.00
2022-12-17T20:25:35.072Z,27.70
2022-12-17T20:28:01.589Z,29.43
2022-12-17T20:30:28.055Z,28.90
2022-12-17T20:32:54.974Z,29.03
2022-12-17T20:35:21.834Z,29.30
2022-12-17T20:37:48.343Z,29.23
2022-12-17T20:40:14.803Z,28.10
2022-12-17T20:42:41.343Z,27.90
2022-12-17T20:45:08.030Z,28.70
2022-12-17T20:47:34.536Z,28.73
2022-12-17T20:50:01.222Z,28.13
2022-12-17T20:52:27.738Z,30.40
2022-12-17T20:54:54.245Z,28.60
2022-12-17T20:57:20.708Z,27.70
2022-12-17T20:59:47.246Z,26.90
2022-12-17T21:02:13.772Z,28.10
2022-12-17T21:04:40.316Z,26.43
2022-12-17T21:07:06.811Z,29.60
2022-12-17T21:09:33.301Z,28.87
2022-12-17T21:11:59.828Z,27.47
2022-12-17T21:14:30.452Z,25.33
2022-12-17T21:17:00.290Z,24.67
2022-12-17T21:19:27.791Z,24.50
2022-12-17T21:21:54.365Z,23.57
2022-12-17T21:24:20.882Z,29.50
2022-12-17T21:26:47.405Z,31.83
2022-12-17T21:29:14.681Z,30.47
2022-12-17T21:31:45.516Z,28.90
2022-12-17T21:34:14.622Z,28.37
2022-12-17T21:36:41.242Z,26.97
2022-12-17T21:39:09.566Z,25.93
2022-12-17T21:41:37.087Z,24.17
2022-12-17T21:44:05.074Z,25.60
2022-12-17T21:46:31.894Z,28.07
2022-12-17T21:48:59.162Z,27.70
2022-12-17T21:51:25.637Z,26.33
2022-12-17T21:53:53.208Z,25.30
2022-12-17T21:56:19.713Z,27.03
2022-12-17T21:58:46.623Z,26.53
2022-12-17T22:01:20.246Z,25.20
2022-12-17T22:03:48.398Z,24.77
2022-12-17T22:06:20.490Z,24.97
2022-12-17T22:08:48.370Z,23.93
2022-12-17T22:11:17.046Z,23.47
2022-12-17T22:14:08.030Z,25.00
2022-12-17T22:16:40.400Z,24.10
2022-12-17T22:19:07.604Z,25.10
2022-12-17T22:21:34.651Z,41.80
2022-12-17T22:24:01.153Z,39.90
2022-12-17T22:26:27.995Z,30.97
2022-12-17T22:28:54.442Z,28.60
2022-12-17T22:31:39.515Z,25.97
2022-12-17T22:35:07.380Z,30.57
2022-12-17T22:39:56.368Z,24.60
2022-12-17T22:44:05.777Z,24.80
2022-12-17T22:44:40.696Z,23.47
2022-12-17T22:45:37.892Z,22.83
2022-12-17T22:48:04.561Z,43.17
2022-12-17T22:50:32.210Z,34.57
2022-12-17T22:53:06.564Z,27.83
2022-12-17T22:55:33.597Z,23.87
2022-12-17T22:58:00.533Z,26.07
2022-12-17T23:00:29.445Z,25.00
2022-12-17T23:02:56.015Z,23.83
2022-12-17T23:05:22.721Z,28.80
2022-12-17T23:07:49.853Z,25.57
2022-12-17T23:10:16.494Z,23.13
2022-12-17T23:12:52.140Z,25.37
2022-12-17T23:15:18.698Z,25.53
2022-12-17T23:17:45.134Z,29.53
2022-12-17T23:20:11.710Z,26.57
2022-12-17T23:22:38.156Z,26.00
2022-12-17T23:25:04.771Z,24.63
2022-12-17T23:27:31.231Z,25.40
2022-12-17T23:29:57.695Z,23.10
2022-12-17T23:32:24.176Z,19.03
2022-12-17T23:34:52.861Z,20.33
2022-12-17T23:37:19.424Z,28.87
2022-12-17T23:39:45.943Z,26.67
2022-12-17T23:42:12.539Z,26.43
2022-12-17T23:44:39.082Z,22.80
2022-12-17T23:47:05.534Z,21.27
2022-12-17T23:49:31.979Z,21.47
2022-12-17T23:51:58.425Z,22.63
2022-12-17T23:54:25.047Z,22.93
2022-12-17T23:56:51.530Z,25.00
2022-12-17T23:59:17.977Z,22.60
